الصفحة الرئيسية
METAR-TAF:

METAR-TAF

مطار :

مابوتو, موزمبيق

دائرة عرض: 25-55S, خط طول: 032-34E, ارتفاع: 39 متر

مراقبة الطقس الحالي

تاريخ ووقت الإصدار 50 دقيقة قبل الساعة 22:00UTC
ريح 3 عقدة من الشرق/الشمال الشرقي
درجة الحرارة 25°درجة مئوية
الرطوبة 83%
ضغط 1018 hPa
الرؤية 10 كم أو أكثر
غيوم متفرقة على ارتفاع 2000 قدم

METAR: FQMA 232200Z 06003KT 9999 SCT020 25/22 Q1018 NOSIG

زمن: 00:50 (22:50 UTC)

توقعات

تاريخ ووقت الإصدار 6ساعات و 50 دقيقة قبل الساعة 16:00UTC
التوقعات صالحة من23 الساعة 18 UTC إلى 24 الساعة 24 UTC
ريح 10 عقدة من الجنوب
الرؤية 10 كم أو أكثر
غيوم متفرقة على ارتفاع 1000 قدم
غيوم قليلة على ارتفاع 3000 قدم, مزنة ركامية.
أصبح
من 24 الساعة 00 UTC إلى 24 الساعة 02 UTC
ريح 10 عقدة من الجنوب الغربي
أصبح
من 24 الساعة 12 UTC إلى 24 الساعة 14 UTC
ريح 10 عقدة من الجنوب/الجنوب الشرقي
أصبح
من 24 الساعة 18 UTC إلى 24 الساعة 20 UTC
ريح 12 عقدة من الشمال

TAF: FQMA 231600Z 2318/2424 17010KT 9999 SCT010 FEW030CB TX32/2413Z TN23/2403Z BECMG 2400/2402 23010KT BECMG 2412/2414 16010KT BECMG 2418/2420 36012KT

أرصاد الطقس والتوقعات من أكثر من 4000 مطار (تقارير الطقس للمطار METAR والتنبؤ بالطقس بالمطارTAF).

المحطات المتاحة هي النقط الصفراء والحمراء على الخريطة.

حرك المؤشر فوق النقطة لمعرفة اسم المحطة.

ثم انقر لمعرفة أرصاد وتوقعات الطقس.

لتغيير الخارطة: اضغط على الأزرار الخضراء مع رمز الصليب الأسود للتكبير. على الزر الأخضر مع شرطة للتصغير، أو على الأسهم الخضراء للخرائط المجاورة.


METAR-TAF: